Time;durP1;ratioP1;P1;durP2;ratioP2;P2;SDS_P1;SDS_P2;PMS_P1;PMS_P2;Temp;Humidity;BMP_temperature;BMP_pressure;BME280_temperature;BME280_humidity;BME280_pressure;Samples;Min_cycle;Max_cycle;Signal;HPM_P1;HPM_P2
2022/03/25 00:00:53;;;;;;;25.27;11.77;;;12.20;69.30;;;;;;5029017;28;20032;-76
2022/03/25 00:06:22;;;;;;;30.20;12.35;;;12.30;69.60;;;;;;5112799;22;20051;-71
2022/03/25 00:08:48;;;;;;;24.35;11.07;;;12.20;69.70;;;;;;5086714;28;20028;-71
2022/03/25 00:11:14;;;;;;;32.13;11.82;;;12.20;69.30;;;;;;5089990;28;20031;-71
2022/03/25 00:13:40;;;;;;;22.85;11.15;;;12.20;69.20;;;;;;5077396;28;20068;-72
2022/03/25 00:16:06;;;;;;;33.97;11.20;;;12.20;69.30;;;;;;5089627;28;20472;-72
2022/03/25 00:18:33;;;;;;;23.10;10.50;;;12.20;69.40;;;;;;5089006;28;20451;-71
2022/03/25 00:21:00;;;;;;;25.55;11.77;;;12.20;69.20;;;;;;5089975;28;20020;-71
2022/03/25 00:23:26;;;;;;;26.20;11.65;;;12.20;69.50;;;;;;5089938;28;20020;-71
2022/03/25 00:25:52;;;;;;;22.80;11.40;;;12.20;69.30;;;;;;5089521;28;20024;-71
2022/03/25 00:28:17;;;;;;;30.98;12.85;;;12.20;69.50;;;;;;5090397;28;20077;-71
2022/03/25 00:30:43;;;;;;;21.98;10.85;;;12.20;69.50;;;;;;5089666;28;20024;-71
2022/03/25 00:33:09;;;;;;;24.20;11.23;;;12.20;69.90;;;;;;5088530;28;20020;-72
2022/03/25 00:35:35;;;;;;;29.27;12.52;;;12.20;69.40;;;;;;5089972;28;20063;-71
2022/03/25 00:38:01;;;;;;;26.67;11.48;;;12.20;69.30;;;;;;5070071;28;20247;-71
2022/03/25 00:40:27;;;;;;;27.10;11.75;;;12.10;69.20;;;;;;5051685;28;20089;-72
2022/03/25 00:42:53;;;;;;;26.13;11.48;;;12.10;69.20;;;;;;5069231;28;20550;-72
2022/03/25 00:45:19;;;;;;;27.30;11.85;;;12.10;69.20;;;;;;5084424;28;20016;-71
2022/03/25 00:47:44;;;;;;;24.45;11.45;;;12.10;69.40;;;;;;5080658;28;20165;-71
2022/03/25 00:50:11;;;;;;;25.70;12.23;;;12.10;69.40;;;;;;5086816;28;20123;-72
2022/03/25 00:52:37;;;;;;;23.65;11.63;;;12.20;69.40;;;;;;5089470;28;20032;-72
2022/03/25 00:55:05;;;;;;;28.45;11.95;;;12.10;69.40;;;;;;5089266;28;20105;-72
2022/03/25 00:57:31;;;;;;;24.85;11.52;;;12.10;69.50;;;;;;5089777;28;20051;-71
2022/03/25 00:59:57;;;;;;;24.50;11.30;;;12.20;69.50;;;;;;5070100;28;20533;-71
2022/03/25 01:02:23;;;;;;;24.05;11.27;;;12.10;69.10;;;;;;5068846;28;20035;-71
2022/03/25 01:04:49;;;;;;;26.30;11.77;;;12.10;69.00;;;;;;5081633;28;20119;-71
2022/03/25 01:07:15;;;;;;;23.60;11.25;;;12.10;69.50;;;;;;5051878;28;20025;-72
2022/03/25 01:09:41;;;;;;;26.15;11.00;;;12.10;69.10;;;;;;5069131;28;20021;-71
2022/03/25 01:12:08;;;;;;;29.17;11.88;;;12.10;69.10;;;;;;5069210;28;20351;-71
2022/03/25 01:14:34;;;;;;;28.05;12.10;;;12.10;69.40;;;;;;5081846;28;20028;-71
2022/03/25 01:17:00;;;;;;;23.70;11.52;;;12.10;69.10;;;;;;5088981;28;20146;-71
2022/03/25 01:19:27;;;;;;;25.10;11.70;;;12.10;69.20;;;;;;5086848;28;20095;-71
2022/03/25 01:21:54;;;;;;;25.05;10.90;;;12.10;69.10;;;;;;5085976;28;20028;-72
2022/03/25 01:24:20;;;;;;;24.73;11.00;;;12.10;69.40;;;;;;5080356;28;20024;-71
2022/03/25 01:26:46;;;;;;;24.23;11.48;;;12.10;69.60;;;;;;5078708;28;20093;-71
2022/03/25 01:29:12;;;;;;;25.15;11.43;;;12.10;70.00;;;;;;5080612;28;20107;-71
2022/03/25 01:31:38;;;;;;;24.88;12.32;;;12.10;69.60;;;;;;5083576;28;20142;-72
2022/03/25 01:34:04;;;;;;;31.30;11.00;;;12.10;69.30;;;;;;5081080;28;20055;-72
2022/03/25 01:36:30;;;;;;;21.33;11.02;;;12.10;69.20;;;;;;5090715;28;20197;-72
2022/03/25 01:38:57;;;;;;;25.10;11.57;;;12.10;69.20;;;;;;5088002;28;20031;-72
2022/03/25 01:41:23;;;;;;;28.15;11.07;;;12.00;69.30;;;;;;5085368;28;20024;-71
2022/03/25 01:43:57;;;;;;;22.73;11.25;;;12.10;69.20;;;;;;5080444;28;20024;-70
2022/03/25 01:46:24;;;;;;;24.60;11.48;;;12.00;69.40;;;;;;5084714;28;20049;-71
2022/03/25 01:48:50;;;;;;;23.65;11.63;;;12.00;69.60;;;;;;5080434;28;20028;-72
2022/03/25 01:51:25;;;;;;;22.52;11.35;;;12.10;69.10;;;;;;5079900;28;20127;-72
2022/03/25 01:53:50;;;;;;;25.05;10.80;;;12.00;69.40;;;;;;5063307;28;20023;-71
2022/03/25 01:56:22;;;;;;;30.90;11.93;;;12.10;69.40;;;;;;5091916;28;20385;-71
2022/03/25 01:58:56;;;;;;;25.73;11.43;;;12.00;69.40;;;;;;5083829;28;20107;-72
2022/03/25 02:01:25;;;;;;;24.20;11.73;;;12.00;69.40;;;;;;5083136;28;20102;-71
2022/03/25 02:03:50;;;;;;;30.10;12.18;;;12.00;69.40;;;;;;5083808;28;20029;-72
2022/03/25 02:06:16;;;;;;;27.08;12.35;;;12.00;70.10;;;;;;5091870;28;20116;-71
2022/03/25 02:08:42;;;;;;;27.20;11.75;;;12.00;70.00;;;;;;5092895;28;20529;-72
2022/03/25 02:11:09;;;;;;;26.60;11.75;;;12.00;70.20;;;;;;5092688;28;20016;-71
2022/03/25 02:13:35;;;;;;;24.95;10.57;;;12.00;70.30;;;;;;5091742;28;20100;-71
2022/03/25 02:16:01;;;;;;;20.90;11.07;;;12.00;70.10;;;;;;5092609;28;20028;-71
2022/03/25 02:18:26;;;;;;;32.72;11.70;;;12.00;70.30;;;;;;5092287;28;20027;-71
2022/03/25 02:20:52;;;;;;;22.85;11.43;;;12.00;70.80;;;;;;5091446;28;20024;-71
2022/03/25 02:23:17;;;;;;;25.27;11.85;;;12.00;70.20;;;;;;5092227;28;20047;-71
2022/03/25 02:25:44;;;;;;;29.45;12.45;;;12.00;70.00;;;;;;5092228;28;20085;-71
2022/03/25 02:28:10;;;;;;;24.23;11.02;;;12.00;69.50;;;;;;5092634;28;20029;-71
2022/03/25 02:30:37;;;;;;;22.83;11.13;;;12.00;70.10;;;;;;5097258;28;20229;-71
2022/03/25 02:33:05;;;;;;;22.02;10.95;;;12.00;70.40;;;;;;5087367;28;20263;-71
2022/03/25 02:35:49;;;;;;;25.90;12.57;;;12.00;70.40;;;;;;5085507;28;20501;-71
2022/03/25 02:38:19;;;;;;;23.15;10.35;;;12.00;70.10;;;;;;5076483;28;20124;-71
2022/03/25 02:40:46;;;;;;;22.23;11.48;;;12.00;69.80;;;;;;5092678;28;20043;-71
2022/03/25 02:43:12;;;;;;;24.58;11.40;;;12.00;69.70;;;;;;5082520;28;20107;-71
2022/03/25 02:45:39;;;;;;;22.30;11.63;;;12.00;69.60;;;;;;5089773;28;20043;-71
2022/03/25 02:48:06;;;;;;;31.80;11.73;;;12.00;69.80;;;;;;5071521;28;20071;-71
2022/03/25 02:50:32;;;;;;;28.50;12.25;;;12.00;69.50;;;;;;5082055;28;20020;-71
2022/03/25 02:52:59;;;;;;;28.95;11.32;;;11.90;70.20;;;;;;5091095;28;20346;-71
2022/03/25 02:55:25;;;;;;;27.33;11.65;;;11.90;69.80;;;;;;5091654;28;20028;-71
2022/03/25 02:57:52;;;;;;;26.17;11.07;;;12.00;70.00;;;;;;5092004;28;20042;-72
2022/03/25 03:00:19;;;;;;;29.15;12.48;;;11.90;69.60;;;;;;5091528;28;20039;-71
2022/03/25 03:02:46;;;;;;;23.02;11.32;;;11.90;69.30;;;;;;5090570;28;20035;-71
2022/03/25 03:05:11;;;;;;;27.38;11.32;;;11.90;69.20;;;;;;5095899;28;20566;-71
2022/03/25 03:07:37;;;;;;;29.70;12.02;;;11.90;69.70;;;;;;5091815;28;20032;-71
2022/03/25 03:10:07;;;;;;;24.02;11.52;;;11.90;69.50;;;;;;5091787;28;20032;-71
2022/03/25 03:12:34;;;;;;;27.90;11.38;;;11.90;70.20;;;;;;5090158;28;20060;-71
2022/03/25 03:15:00;;;;;;;27.23;12.60;;;11.90;70.90;;;;;;5076080;28;20044;-71
2022/03/25 03:17:26;;;;;;;24.83;12.35;;;11.90;69.60;;;;;;5091412;28;20021;-71
2022/03/25 03:19:52;;;;;;;28.48;12.50;;;11.90;70.80;;;;;;5087864;28;20488;-71
2022/03/25 03:22:18;;;;;;;25.67;11.15;;;11.90;71.00;;;;;;5090926;28;20028;-71
2022/03/25 03:24:44;;;;;;;25.30;11.23;;;11.90;70.70;;;;;;5091525;28;20020;-71
2022/03/25 03:27:10;;;;;;;28.27;12.05;;;11.90;69.60;;;;;;5090699;28;20024;-71
2022/03/25 03:29:37;;;;;;;23.20;11.15;;;11.90;70.90;;;;;;5091161;28;20016;-71
2022/03/25 03:32:04;;;;;;;29.92;11.75;;;11.90;69.20;;;;;;5084953;28;20051;-71
2022/03/25 03:34:30;;;;;;;21.00;11.05;;;11.90;70.80;;;;;;5070718;28;20043;-71
2022/03/25 03:36:56;;;;;;;25.55;12.50;;;11.90;71.10;;;;;;5084306;28;20035;-72
2022/03/25 03:39:21;;;;;;;21.80;11.73;;;11.90;71.00;;;;;;5091081;28;20378;-71
2022/03/25 03:41:47;;;;;;;25.83;11.32;;;11.90;70.50;;;;;;5082315;28;20024;-71
2022/03/25 03:44:13;;;;;;;25.58;11.77;;;11.90;71.10;;;;;;5082324;28;20446;-71
2022/03/25 03:46:38;;;;;;;27.95;11.23;;;11.80;70.80;;;;;;5082722;28;20031;-71
2022/03/25 03:49:05;;;;;;;24.75;11.27;;;11.80;70.80;;;;;;5074602;28;20024;-71
2022/03/25 03:51:31;;;;;;;27.23;11.50;;;11.80;71.10;;;;;;5089265;28;20054;-71
2022/03/25 03:53:57;;;;;;;25.25;11.45;;;11.80;70.00;;;;;;5089764;28;20131;-71
2022/03/25 03:56:23;;;;;;;24.98;11.57;;;11.80;71.10;;;;;;5090708;28;20508;-71
2022/03/25 03:58:49;;;;;;;25.67;11.65;;;11.80;70.60;;;;;;5090116;28;20074;-71
2022/03/25 04:01:14;;;;;;;23.80;11.38;;;11.80;71.40;;;;;;5090137;28;20099;-71
2022/03/25 04:03:40;;;;;;;26.25;11.90;;;11.80;69.80;;;;;;5081108;28;20428;-72
2022/03/25 04:06:05;;;;;;;26.83;12.45;;;11.80;70.60;;;;;;5079049;28;20028;-72
2022/03/25 04:08:32;;;;;;;26.10;11.85;;;11.80;69.50;;;;;;5090335;28;20119;-71
2022/03/25 04:10:58;;;;;;;31.00;11.75;;;11.80;70.30;;;;;;5090720;28;20020;-71
2022/03/25 04:13:24;;;;;;;27.67;12.40;;;11.80;71.30;;;;;;5089183;28;20020;-71
2022/03/25 04:15:50;;;;;;;25.15;12.32;;;11.80;70.60;;;;;;5088455;28;20028;-71
2022/03/25 04:18:16;;;;;;;28.95;11.90;;;11.80;69.80;;;;;;5081626;28;20116;-71
2022/03/25 04:20:41;;;;;;;25.60;11.90;;;11.80;69.30;;;;;;5076443;28;20029;-73
2022/03/25 04:23:07;;;;;;;26.80;11.98;;;11.80;70.30;;;;;;5081403;28;20078;-71
2022/03/25 04:25:32;;;;;;;27.98;12.00;;;11.80;70.20;;;;;;5081846;28;20024;-71
2022/03/25 04:27:59;;;;;;;28.00;11.57;;;11.80;69.70;;;;;;5077501;28;20488;-72
2022/03/25 04:30:27;;;;;;;34.80;12.65;;;11.80;69.80;;;;;;5078184;28;20033;-71
2022/03/25 04:32:53;;;;;;;29.65;11.40;;;11.80;69.90;;;;;;5073411;28;20034;-73
2022/03/25 04:35:20;;;;;;;28.55;11.70;;;11.80;69.70;;;;;;5086445;28;20478;-72
2022/03/25 04:37:46;;;;;;;26.30;11.20;;;11.80;70.50;;;;;;5052031;28;20470;-71
2022/03/25 04:40:17;;;;;;;24.02;10.98;;;11.70;70.30;;;;;;5087538;28;20502;-72
2022/03/25 04:42:46;;;;;;;24.75;11.60;;;11.80;69.40;;;;;;5091361;28;20027;-72
2022/03/25 04:45:13;;;;;;;26.33;12.52;;;11.80;70.80;;;;;;5090444;28;20472;-72
2022/03/25 04:47:39;;;;;;;26.40;11.15;;;11.80;70.10;;;;;;5089273;28;20477;-72
2022/03/25 04:50:05;;;;;;;26.38;11.07;;;11.80;69.90;;;;;;5065661;28;20146;-72
2022/03/25 04:52:31;;;;;;;26.95;12.13;;;11.70;70.60;;;;;;5084070;28;20055;-72
2022/03/25 04:54:56;;;;;;;25.77;11.50;;;11.80;71.00;;;;;;5085659;28;20082;-72
2022/03/25 04:57:26;;;;;;;31.85;12.07;;;11.70;70.70;;;;;;5083919;28;20028;-72
2022/03/25 04:59:52;;;;;;;28.95;12.13;;;11.70;70.70;;;;;;5085456;28;20035;-73
2022/03/25 05:02:18;;;;;;;24.48;11.32;;;11.80;70.30;;;;;;5082818;28;20024;-72
2022/03/25 05:04:43;;;;;;;24.27;11.52;;;11.80;70.20;;;;;;5081067;28;20036;-73
2022/03/25 05:07:18;;;;;;;28.55;12.18;;;11.70;70.20;;;;;;5076252;28;20029;-71
2022/03/25 05:09:58;;;;;;;25.90;11.75;;;11.80;70.70;;;;;;5087256;28;20110;-72
2022/03/25 05:12:25;;;;;;;28.45;12.32;;;11.70;70.00;;;;;;5085095;28;20024;-72
2022/03/25 05:14:51;;;;;;;29.67;11.93;;;11.70;70.00;;;;;;5086913;28;20487;-72
2022/03/25 05:17:16;;;;;;;23.88;11.05;;;11.80;71.00;;;;;;5081124;28;20024;-72
2022/03/25 05:19:42;;;;;;;22.90;11.50;;;11.70;71.30;;;;;;5081191;28;20021;-73
2022/03/25 05:22:08;;;;;;;23.77;11.98;;;11.70;71.00;;;;;;5084024;28;20032;-73
2022/03/25 05:24:34;;;;;;;22.60;11.23;;;11.70;70.80;;;;;;5076470;28;20040;-73
2022/03/25 05:27:00;;;;;;;28.83;12.13;;;11.70;70.90;;;;;;5088749;28;20016;-71
2022/03/25 05:29:28;;;;;;;25.52;12.05;;;11.70;70.70;;;;;;5080992;28;20024;-72
2022/03/25 05:31:54;;;;;;;25.40;11.95;;;11.70;70.70;;;;;;5080490;28;20025;-73
2022/03/25 05:34:20;;;;;;;26.00;11.18;;;11.70;70.60;;;;;;5075977;28;20024;-72
2022/03/25 05:36:46;;;;;;;29.60;12.32;;;11.70;70.50;;;;;;5080356;28;20039;-72
2022/03/25 05:39:11;;;;;;;28.20;11.93;;;11.70;71.20;;;;;;5092865;28;20461;-72
2022/03/25 05:41:38;;;;;;;20.50;11.13;;;11.70;71.10;;;;;;5092333;28;20032;-72
2022/03/25 05:44:04;;;;;;;31.73;12.25;;;11.70;71.30;;;;;;5092455;28;20553;-72
2022/03/25 05:46:29;;;;;;;20.55;10.07;;;11.70;71.30;;;;;;5080447;28;20032;-72
2022/03/25 05:48:55;;;;;;;33.75;11.55;;;11.70;71.20;;;;;;5087551;28;20540;-73
2022/03/25 05:51:22;;;;;;;21.63;11.10;;;11.70;71.50;;;;;;5080356;28;20509;-72
2022/03/25 05:53:48;;;;;;;28.52;11.73;;;11.70;72.20;;;;;;5083429;28;20024;-72
2022/03/25 05:56:14;;;;;;;27.27;12.38;;;11.70;71.80;;;;;;5080625;28;20032;-72
2022/03/25 05:58:40;;;;;;;23.80;11.82;;;11.70;71.70;;;;;;5084146;28;20032;-72
2022/03/25 06:01:07;;;;;;;28.75;12.13;;;11.70;72.20;;;;;;5080511;28;20031;-72
2022/03/25 06:03:33;;;;;;;28.63;11.65;;;11.70;72.60;;;;;;5083653;28;20030;-72
2022/03/25 06:06:04;;;;;;;26.20;11.95;;;11.70;72.40;;;;;;5083539;28;20111;-73
2022/03/25 06:08:30;;;;;;;28.30;12.88;;;11.70;73.00;;;;;;5065870;28;20116;-72
2022/03/25 06:10:57;;;;;;;30.40;11.60;;;11.70;72.10;;;;;;5087948;28;20031;-72
2022/03/25 06:13:23;;;;;;;23.88;10.88;;;11.70;72.40;;;;;;5088828;28;20158;-72
2022/03/25 06:15:50;;;;;;;24.85;11.40;;;11.70;72.70;;;;;;5087898;28;20073;-73
2022/03/25 06:18:16;;;;;;;25.85;11.68;;;11.70;72.70;;;;;;5085486;28;20536;-73
2022/03/25 06:20:42;;;;;;;28.52;12.38;;;11.70;72.60;;;;;;5091391;28;20025;-73
2022/03/25 06:23:07;;;;;;;25.02;12.48;;;11.80;72.70;;;;;;5089369;28;20043;-73
2022/03/25 06:25:33;;;;;;;31.38;12.75;;;11.80;71.90;;;;;;5083453;28;20068;-72
2022/03/25 06:28:01;;;;;;;21.98;11.00;;;11.80;71.70;;;;;;5076643;28;20075;-72
2022/03/25 06:30:33;;;;;;;25.08;12.55;;;11.80;71.80;;;;;;5084208;28;20043;-72
2022/03/25 06:32:59;;;;;;;27.17;12.95;;;11.90;71.50;;;;;;5083928;28;20078;-73
2022/03/25 06:35:25;;;;;;;26.38;11.80;;;11.90;71.50;;;;;;5090802;28;20393;-73
2022/03/25 06:37:52;;;;;;;27.30;11.23;;;11.90;71.40;;;;;;5081294;28;20031;-73
2022/03/25 06:40:19;;;;;;;26.23;10.98;;;12.00;71.50;;;;;;5079515;28;20043;-73
2022/03/25 06:42:45;;;;;;;28.33;12.40;;;12.00;71.50;;;;;;5083232;28;20052;-74
2022/03/25 06:45:14;;;;;;;24.08;11.05;;;12.00;71.40;;;;;;5086176;28;20029;-73
2022/03/25 06:47:40;;;;;;;34.50;11.43;;;12.00;71.30;;;;;;5078917;28;20408;-73
2022/03/25 06:50:07;;;;;;;25.73;12.23;;;12.00;71.20;;;;;;5082075;28;20028;-72
2022/03/25 06:52:33;;;;;;;26.08;11.50;;;12.10;71.40;;;;;;5079368;28;20283;-73
2022/03/25 06:54:59;;;;;;;34.80;12.68;;;12.10;71.30;;;;;;5080787;28;20527;-74
2022/03/25 06:57:25;;;;;;;24.67;12.13;;;12.10;71.40;;;;;;5084008;28;20316;-73
2022/03/25 06:59:51;;;;;;;28.45;13.50;;;12.20;71.50;;;;;;5081643;28;20477;-74
2022/03/25 07:02:17;;;;;;;31.85;13.45;;;12.20;71.40;;;;;;5079132;28;20021;-73
2022/03/25 07:04:43;;;;;;;31.90;13.10;;;12.20;71.60;;;;;;5080693;28;20088;-72
2022/03/25 07:07:10;;;;;;;29.02;12.02;;;12.20;71.70;;;;;;5074015;28;20389;-72
2022/03/25 07:09:36;;;;;;;30.55;12.27;;;12.30;71.90;;;;;;5083073;28;20027;-73
2022/03/25 07:12:02;;;;;;;29.98;12.38;;;12.20;72.00;;;;;;5081997;28;20376;-73
2022/03/25 07:14:28;;;;;;;36.33;13.35;;;12.20;71.90;;;;;;5083905;28;20020;-74
2022/03/25 07:16:54;;;;;;;30.25;13.00;;;12.30;71.90;;;;;;5078344;28;20028;-73
2022/03/25 07:19:20;;;;;;;27.67;12.98;;;12.30;72.30;;;;;;5079240;28;20029;-74
2022/03/25 07:21:46;;;;;;;30.08;12.77;;;12.30;73.00;;;;;;5061249;28;20031;-73
2022/03/25 07:24:12;;;;;;;29.70;12.65;;;12.30;72.50;;;;;;5078184;28;20020;-72
2022/03/25 07:26:38;;;;;;;34.85;13.27;;;12.40;72.20;;;;;;5086502;28;20052;-73
2022/03/25 07:29:04;;;;;;;32.65;14.05;;;12.40;72.80;;;;;;5086813;28;20027;-74
2022/03/25 07:31:32;;;;;;;34.72;14.15;;;12.40;73.00;;;;;;5073952;28;20024;-73
2022/03/25 07:33:58;;;;;;;29.90;13.80;;;12.40;73.50;;;;;;5078050;28;20151;-73
2022/03/25 07:36:24;;;;;;;36.80;13.02;;;12.50;73.60;;;;;;5078374;28;20031;-73
2022/03/25 07:38:51;;;;;;;41.08;13.88;;;12.50;73.70;;;;;;5086101;28;20060;-73
2022/03/25 07:41:17;;;;;;;33.55;13.30;;;12.50;74.30;;;;;;5082334;28;20032;-73
2022/03/25 07:43:43;;;;;;;32.25;13.45;;;12.50;74.00;;;;;;5085512;28;20027;-73
2022/03/25 07:46:10;;;;;;;32.90;13.52;;;12.50;72.30;;;;;;5082023;28;20028;-74
2022/03/25 07:48:36;;;;;;;32.75;13.15;;;12.60;71.80;;;;;;5078538;28;20487;-73
2022/03/25 07:51:02;;;;;;;32.42;12.75;;;12.50;72.50;;;;;;5085691;28;20020;-74
2022/03/25 07:53:28;;;;;;;34.42;13.05;;;12.60;72.40;;;;;;5085559;28;20102;-74
2022/03/25 07:55:54;;;;;;;36.75;13.60;;;12.60;71.50;;;;;;5081338;28;20036;-74
2022/03/25 07:58:21;;;;;;;38.92;13.50;;;12.60;71.60;;;;;;5081153;28;20044;-73
2022/03/25 08:00:48;;;;;;;36.67;12.75;;;12.60;71.40;;;;;;5070616;28;20021;-74
2022/03/25 08:03:16;;;;;;;30.38;11.57;;;12.70;70.90;;;;;;5078348;28;20020;-74
2022/03/25 08:05:42;;;;;;;27.50;11.45;;;12.70;70.60;;;;;;5071660;28;20023;-75
2022/03/25 08:10:39;;;;;;;38.10;13.65;;;12.70;70.30;;;;;;5121282;22;20056;-78
2022/03/25 08:13:05;;;;;;;27.83;11.32;;;12.70;69.40;;;;;;5109142;28;20040;-78
2022/03/25 08:15:35;;;;;;;28.15;13.27;;;12.70;70.50;;;;;;5109915;28;20038;-79
2022/03/25 08:18:07;;;;;;;33.75;13.98;;;12.70;69.50;;;;;;5110280;28;20047;-78
2022/03/25 08:20:41;;;;;;;34.60;13.13;;;12.80;70.20;;;;;;5110286;28;20032;-78
2022/03/25 08:28:59;;;;;;;32.08;12.88;;;12.80;69.00;;;;;;5070215;28;20035;-78
2022/03/25 08:31:25;;;;;;;34.78;13.95;;;12.80;69.80;;;;;;5072268;28;20142;-78
2022/03/25 08:34:14;;;;;;;37.70;13.70;;;12.80;67.80;;;;;;5072620;28;20478;-78
2022/03/25 08:36:40;;;;;;;40.92;13.50;;;12.80;68.40;;;;;;5069550;28;20490;-78
2022/03/25 08:39:07;;;;;;;27.17;10.60;;;12.80;69.30;;;;;;5069286;28;20131;-78
2022/03/25 08:41:33;;;;;;;53.03;13.70;;;12.80;68.80;;;;;;5070049;28;20489;-78
2022/03/25 08:43:59;;;;;;;27.88;13.35;;;12.80;68.00;;;;;;5069529;28;20036;-78
2022/03/25 08:46:24;;;;;;;36.85;14.65;;;12.80;68.40;;;;;;5051482;28;20034;-78
2022/03/25 08:48:50;;;;;;;34.15;12.52;;;12.80;69.00;;;;;;5051062;28;20434;-79
2022/03/25 08:51:16;;;;;;;31.58;11.20;;;12.80;68.20;;;;;;5068923;28;20327;-78
2022/03/25 08:53:43;;;;;;;35.67;15.05;;;12.80;68.30;;;;;;5080127;28;20078;-78
2022/03/25 08:56:10;;;;;;;31.33;14.77;;;12.80;68.20;;;;;;5069401;28;20036;-78
2022/03/25 08:58:36;;;;;;;33.53;14.57;;;12.80;68.90;;;;;;5069092;28;20489;-78
2022/03/25 09:01:02;;;;;;;29.77;12.45;;;12.80;69.10;;;;;;5069356;28;20079;-78
2022/03/25 09:03:32;;;;;;;45.22;15.35;;;12.80;70.60;;;;;;5067501;28;20549;-78
2022/03/25 09:05:58;;;;;;;28.90;11.13;;;12.80;69.20;;;;;;5064673;28;20122;-78
2022/03/25 09:08:24;;;;;;;35.22;15.82;;;12.80;70.00;;;;;;5087913;28;20024;-79
2022/03/25 09:10:51;;;;;;;31.90;11.75;;;12.90;69.90;;;;;;5072388;28;20469;-78
2022/03/25 09:13:17;;;;;;;31.60;13.55;;;12.90;72.20;;;;;;5072696;28;20033;-78
2022/03/25 09:15:42;;;;;;;32.97;15.80;;;12.90;71.60;;;;;;5109769;28;20032;-79
2022/03/25 09:18:08;;;;;;;33.15;15.75;;;12.90;71.40;;;;;;5109919;28;20070;-78
2022/03/25 09:20:34;;;;;;;27.88;12.48;;;12.90;71.10;;;;;;5110617;28;20480;-78
2022/03/25 09:22:59;;;;;;;33.67;15.68;;;12.90;71.80;;;;;;5109253;28;20031;-78
2022/03/25 09:25:25;;;;;;;37.95;15.05;;;13.00;69.90;;;;;;5096087;28;20123;-78
2022/03/25 09:27:51;;;;;;;34.25;14.85;;;13.00;70.90;;;;;;5089312;28;20051;-78
2022/03/25 09:30:17;;;;;;;38.55;14.13;;;13.00;71.20;;;;;;5089387;28;20488;-78
2022/03/25 09:32:42;;;;;;;33.80;14.40;;;13.00;71.90;;;;;;5069796;28;20055;-78
2022/03/25 09:35:08;;;;;;;31.67;11.88;;;13.00;71.50;;;;;;5090277;28;20032;-78
2022/03/25 09:37:42;;;;;;;81.55;21.75;;;13.00;71.50;;;;;;5090107;28;20115;-78
2022/03/25 09:40:12;;;;;;;33.85;13.43;;;13.00;71.70;;;;;;5077536;28;20032;-78
2022/03/25 09:42:39;;;;;;;37.60;16.38;;;13.10;72.30;;;;;;5068813;28;20550;-78
2022/03/25 09:45:06;;;;;;;38.03;16.80;;;13.10;71.50;;;;;;5082428;28;20075;-79
2022/03/25 09:47:32;;;;;;;26.05;7.05;;;13.10;72.10;;;;;;5089624;28;20024;-78
2022/03/25 09:50:02;;;;;;;49.75;16.42;;;13.10;71.70;;;;;;5093039;28;20129;-78
2022/03/25 09:52:29;;;;;;;;;;;13.10;71.90;;;;;;5091688;28;20482;-78
2022/03/25 09:54:55;;;;;;;37.80;16.10;;;13.20;72.40;;;;;;5071547;28;20373;-78
2022/03/25 09:57:21;;;;;;;33.38;15.32;;;13.20;71.80;;;;;;5072499;28;20032;-78
2022/03/25 09:59:47;;;;;;;36.05;14.88;;;13.20;71.80;;;;;;5054131;28;20021;-78
2022/03/25 10:02:12;;;;;;;47.83;18.63;;;13.20;71.50;;;;;;5072260;28;20421;-77
2022/03/25 10:04:41;;;;;;;32.75;14.45;;;13.30;71.10;;;;;;5073054;28;20033;-77
2022/03/25 10:07:18;;;;;;;18.13;9.40;;;13.30;71.00;;;;;;5073954;28;20107;-77
2022/03/25 10:10:15;;;;;;;46.75;16.77;;;13.30;70.80;;;;;;5076151;28;20028;-79
2022/03/25 10:13:00;;;;;;;42.42;18.05;;;13.60;64.30;;;;;;4993928;28;20411;-79
2022/03/25 10:15:28;;;;;;;33.10;15.60;;;13.80;60.00;;;;;;4992649;28;20411;-80
2022/03/25 10:18:03;;;;;;;42.55;16.75;;;14.00;57.80;;;;;;4992473;28;20519;-81
2022/03/25 10:20:29;;;;;;;40.00;17.67;;;13.90;57.00;;;;;;5012178;28;20037;-80
2022/03/25 10:23:08;;;;;;;44.95;18.77;;;14.00;55.60;;;;;;5011193;28;20037;-79
2022/03/25 10:25:57;;;;;;;38.47;19.40;;;14.00;56.10;;;;;;5019537;28;20427;-79
2022/03/25 10:28:32;;;;;;;41.05;15.38;;;14.00;55.00;;;;;;5032881;28;20036;-79
2022/03/25 10:31:06;;;;;;;41.05;19.27;;;14.10;54.20;;;;;;5032186;28;20155;-79
2022/03/25 10:33:35;;;;;;;37.65;19.23;;;14.10;52.80;;;;;;5030542;28;20104;-76
2022/03/25 10:36:04;;;;;;;45.70;14.70;;;14.10;52.00;;;;;;5029320;28;20046;-73
2022/03/25 10:38:43;;;;;;;37.40;18.50;;;14.30;50.60;;;;;;5028929;28;20033;-73
2022/03/25 10:41:09;;;;;;;44.67;18.98;;;14.40;51.10;;;;;;5027756;28;20136;-72
2022/03/25 10:43:45;;;;;;;36.78;15.90;;;14.50;49.80;;;;;;5030260;28;20491;-73
2022/03/25 10:46:31;;;;;;;37.70;17.83;;;14.60;50.20;;;;;;5048642;28;20021;-73
2022/03/25 10:48:58;;;;;;;42.88;19.48;;;14.60;49.70;;;;;;5077420;28;20036;-75
2022/03/25 10:51:24;;;;;;;43.28;21.17;;;14.70;48.10;;;;;;5111402;28;20472;-75
2022/03/25 10:54:09;;;;;;;41.25;19.90;;;14.80;47.40;;;;;;5080701;28;20028;-75
2022/03/25 10:56:45;;;;;;;54.67;21.75;;;14.80;46.80;;;;;;5077472;28;20051;-75
2022/03/25 10:59:40;;;;;;;34.90;16.35;;;15.00;47.20;;;;;;5071564;28;20565;-77
2022/03/25 11:02:07;;;;;;;35.28;15.20;;;14.90;46.50;;;;;;4989281;28;20041;-78
2022/03/25 11:04:34;;;;;;;36.63;17.45;;;14.90;46.50;;;;;;4989626;28;20181;-78
2022/03/25 11:07:04;;;;;;;35.38;16.63;;;14.90;46.60;;;;;;4990054;28;20038;-78
2022/03/25 11:09:31;;;;;;;42.60;20.73;;;14.90;47.70;;;;;;4989660;28;20130;-77
2022/03/25 11:11:58;;;;;;;38.47;18.95;;;14.90;45.70;;;;;;5007843;28;20041;-78
2022/03/25 11:14:25;;;;;;;40.53;18.98;;;14.90;47.00;;;;;;5009077;28;20554;-78
2022/03/25 11:16:55;;;;;;;60.25;17.83;;;14.90;46.00;;;;;;5009061;28;20034;-78
2022/03/25 11:19:22;;;;;;;40.08;17.75;;;15.00;48.70;;;;;;5008127;28;20065;-79
2022/03/25 11:21:49;;;;;;;41.15;16.77;;;15.20;48.40;;;;;;5017548;28;20071;-79
2022/03/25 11:24:24;;;;;;;37.17;17.80;;;15.20;47.40;;;;;;5027530;28;20044;-74
2022/03/25 11:26:52;;;;;;;76.20;21.38;;;15.30;46.50;;;;;;5028719;28;20026;-74
2022/03/25 11:29:22;;;;;;;83.18;19.33;;;15.40;47.00;;;;;;5030289;28;20033;-75
2022/03/25 11:32:14;;;;;;;42.25;14.63;;;15.40;43.80;;;;;;5029084;28;20152;-75
2022/03/25 11:34:44;;;;;;;33.25;15.40;;;15.40;44.00;;;;;;5028973;28;20042;-75
2022/03/25 11:37:28;;;;;;;34.88;15.52;;;15.40;42.80;;;;;;5029506;28;20048;-74
2022/03/25 11:40:13;;;;;;;37.30;15.20;;;15.40;43.20;;;;;;5070997;28;20035;-75
2022/03/25 11:42:50;;;;;;;35.60;16.35;;;15.40;41.90;;;;;;5068860;28;20028;-75
2022/03/25 11:45:22;;;;;;;36.45;16.30;;;15.40;42.70;;;;;;5070337;28;20059;-75
2022/03/25 11:48:03;;;;;;;32.05;16.48;;;15.30;43.20;;;;;;5070048;28;20032;-76
2022/03/25 11:50:31;;;;;;;35.90;16.10;;;15.40;42.30;;;;;;5070304;28;20051;-74
2022/03/25 11:52:58;;;;;;;36.25;15.20;;;15.40;42.20;;;;;;5075027;28;20111;-76
2022/03/25 11:55:24;;;;;;;31.50;13.02;;;15.40;43.40;;;;;;5089857;28;20031;-75
2022/03/25 11:57:50;;;;;;;36.05;17.25;;;15.50;44.00;;;;;;5070330;28;20024;-74
2022/03/25 12:00:28;;;;;;;33.72;15.50;;;15.50;44.30;;;;;;5070192;28;20023;-76
2022/03/25 12:03:05;;;;;;;30.42;17.15;;;15.60;45.40;;;;;;5069121;28;20052;-75
2022/03/25 12:05:34;;;;;;;20.10;7.82;;;15.80;43.70;;;;;;5069971;28;20461;-75
2022/03/25 12:08:21;;;;;;;34.72;16.52;;;15.80;45.00;;;;;;5069652;28;20114;-74
2022/03/25 12:10:49;;;;;;;40.38;17.77;;;15.70;42.80;;;;;;5068486;28;20036;-75
2022/03/25 12:13:15;;;;;;;35.00;16.38;;;15.70;44.40;;;;;;5052739;28;20028;-76
2022/03/25 12:15:49;;;;;;;35.50;16.63;;;15.60;44.30;;;;;;5089570;28;20353;-75
2022/03/25 12:18:39;;;;;;;32.70;15.23;;;15.70;43.50;;;;;;5089953;28;20023;-75
2022/03/25 12:21:10;;;;;;;;;;;15.70;43.40;;;;;;5090289;28;20032;-75
2022/03/25 12:23:35;;;;;;;44.97;18.80;;;15.60;44.40;;;;;;5089249;28;19911;-74
2022/03/25 12:26:02;;;;;;;20.70;9.75;;;15.80;41.90;;;;;;5086273;28;20029;-75
2022/03/25 12:28:27;;;;;;;39.65;17.70;;;15.80;43.30;;;;;;5069173;28;20025;-75
2022/03/25 12:30:55;;;;;;;38.70;17.63;;;15.70;43.80;;;;;;5069490;28;20036;-76
2022/03/25 12:33:21;;;;;;;39.13;17.55;;;15.70;44.50;;;;;;5068204;28;20035;-76
2022/03/25 12:35:47;;;;;;;46.75;17.00;;;15.60;45.50;;;;;;5069042;28;20037;-75
2022/03/25 12:38:22;;;;;;;43.30;17.20;;;15.70;46.40;;;;;;5069043;28;20031;-75
2022/03/25 12:40:50;;;;;;;38.55;16.90;;;15.90;46.90;;;;;;5069564;28;20079;-75
2022/03/25 12:43:16;;;;;;;41.33;19.92;;;16.00;46.40;;;;;;5070129;28;20043;-75